Time;durP1;ratioP1;P1;durP2;ratioP2;P2;SDS_P1;SDS_P2;PMS_P1;PMS_P2;Temp;Humidity;BMP_temperature;BMP_pressure;BME280_temperature;BME280_humidity;BME280_pressure;Samples;Min_cycle;Max_cycle;Signal;HPM_P1;HPM_P2
2023/09/09 00:01:53;;;;;;;8.20;3.40;;;;;;;18.15;80.12;100887.45;108950;1254;59937;-82
2023/09/09 00:04:21;;;;;;;6.00;2.80;;;;;;;18.12;80.74;100884.86;109069;1253;58865;-82
2023/09/09 00:06:49;;;;;;;8.40;3.50;;;;;;;18.17;80.44;100878.15;109074;1253;72508;-82
2023/09/09 00:09:17;;;;;;;6.40;2.60;;;;;;;18.32;79.88;100874.88;108941;1253;67175;-82
2023/09/09 00:11:44;;;;;;;8.10;3.10;;;;;;;18.41;79.41;100869.79;108928;1254;71451;-82
2023/09/09 00:14:12;;;;;;;5.10;2.60;;;;;;;18.51;78.77;100868.58;108999;1254;60483;-82
2023/09/09 00:16:40;;;;;;;4.60;3.10;;;;;;;18.46;78.55;100869.94;109055;1254;60040;-82
2023/09/09 00:19:08;;;;;;;7.10;2.80;;;;;;;18.35;78.38;100868.88;108915;1254;73040;-82
2023/09/09 00:21:37;;;;;;;5.90;2.90;;;;;;;18.19;78.58;100866.90;108988;1254;67306;-82
2023/09/09 00:24:05;;;;;;;5.80;2.80;;;;;;;18.11;78.59;100867.69;109026;1254;72737;-82
2023/09/09 00:26:33;;;;;;;6.80;3.10;;;;;;;18.04;78.69;100866.55;109009;1254;61646;-82
2023/09/09 00:29:02;;;;;;;8.50;3.30;;;;;;;17.97;79.31;100867.08;108940;1252;58828;-82
2023/09/09 00:31:30;;;;;;;5.80;3.40;;;;;;;18.06;79.07;100864.98;108955;1254;73795;-82
2023/09/09 00:33:58;;;;;;;6.20;2.90;;;;;;;18.03;79.17;100864.53;108968;1254;69210;-82
2023/09/09 00:36:26;;;;;;;6.70;2.90;;;;;;;18.03;79.27;100866.68;109120;1253;74311;-82
2023/09/09 00:38:54;;;;;;;8.90;3.30;;;;;;;18.04;79.23;100865.21;109047;1254;61702;-82
2023/09/09 00:41:23;;;;;;;8.50;3.10;;;;;;;18.12;78.89;100862.06;109140;1253;60038;-82
2023/09/09 00:43:51;;;;;;;7.50;3.00;;;;;;;18.03;79.66;100861.77;109054;1254;73794;-82
2023/09/09 00:46:19;;;;;;;6.20;3.00;;;;;;;17.99;80.20;100862.20;109045;1254;68170;-82
2023/09/09 00:48:47;;;;;;;7.50;3.20;;;;;;;18.03;80.14;100856.41;108983;1253;71218;-82
2023/09/09 00:51:15;;;;;;;6.00;2.70;;;;;;;18.14;79.30;100857.81;108873;1255;241094;-82
2023/09/09 00:53:43;;;;;;;7.70;3.20;;;;;;;18.03;79.20;100863.05;109045;1254;58747;-81
2023/09/09 00:56:11;;;;;;;6.80;3.10;;;;;;;18.06;78.57;100862.37;109081;1253;72306;-82
2023/09/09 00:58:38;;;;;;;7.40;2.70;;;;;;;18.07;77.92;100860.64;109043;1254;67339;-82
2023/09/09 01:01:07;;;;;;;5.80;2.70;;;;;;;18.01;76.21;100863.71;109018;1253;72915;-82
2023/09/09 01:03:35;;;;;;;4.00;2.60;;;;;;;17.69;76.81;100864.45;108942;1253;61746;-82
2023/09/09 01:06:03;;;;;;;6.10;3.00;;;;;;;17.48;78.08;100866.48;108949;1252;59909;-82
2023/09/09 01:08:31;;;;;;;7.10;3.20;;;;;;;17.37;79.05;100861.80;109081;1254;72583;-81
2023/09/09 01:10:59;;;;;;;10.90;4.40;;;;;;;17.49;78.74;100853.91;109024;1254;69217;-81
2023/09/09 01:13:27;;;;;;;9.50;3.90;;;;;;;17.50;79.51;100851.66;109227;1253;71068;-82
2023/09/09 01:15:55;;;;;;;13.20;4.60;;;;;;;17.51;80.55;100853.23;109189;1252;61655;-82
2023/09/09 01:18:23;;;;;;;10.70;3.90;;;;;;;17.51;80.65;100851.41;108949;1253;59989;-82
2023/09/09 01:20:56;;;;;;;8.00;4.20;;;;;;;17.45;80.35;100850.04;108981;1253;72849;-82
2023/09/09 01:23:24;;;;;;;9.10;4.40;;;;;;;17.43;80.97;100847.65;109105;1253;68684;-82
2023/09/09 01:25:52;;;;;;;6.10;3.40;;;;;;;17.50;80.77;100845.88;109024;1253;71079;-82
2023/09/09 01:28:22;;;;;;;10.80;4.50;;;;;;;17.38;80.06;100849.71;109058;1253;60432;-82
2023/09/09 01:30:50;;;;;;;10.90;5.00;;;;;;;17.27;80.63;100849.50;108979;1253;62159;-81
2023/09/09 01:33:18;;;;;;;10.80;4.40;;;;;;;17.25;81.39;100850.36;108899;1253;73869;-81
2023/09/09 01:35:46;;;;;;;8.60;4.10;;;;;;;17.36;80.75;100851.90;108967;1253;68552;-80
2023/09/09 01:38:14;;;;;;;7.60;4.00;;;;;;;17.31;80.99;100851.79;108899;1253;71415;-81
2023/09/09 01:40:42;;;;;;;10.70;4.60;;;;;;;17.19;82.23;100851.58;109037;1253;60053;-81
2023/09/09 01:43:10;;;;;;;8.60;4.00;;;;;;;17.20;82.76;100853.27;108982;1253;60023;-81
2023/09/09 01:45:39;;;;;;;9.70;4.30;;;;;;;17.16;82.79;100849.33;108963;1253;72486;-81
2023/09/09 01:48:07;;;;;;;6.50;3.40;;;;;;;17.16;82.00;100849.42;108887;1253;68422;-81
2023/09/09 01:50:35;;;;;;;7.70;4.00;;;;;;;17.24;82.03;100847.60;108997;1254;72855;-81
2023/09/09 01:53:03;;;;;;;11.80;4.00;;;;;;;17.49;81.01;100850.04;108999;1254;60100;-81
2023/09/09 01:55:31;;;;;;;6.90;4.00;;;;;;;17.58;81.89;100850.58;109018;1254;60043;-81
2023/09/09 01:57:59;;;;;;;6.20;3.70;;;;;;;17.74;82.35;100843.95;109047;1254;72627;-81
2023/09/09 02:00:27;;;;;;;7.10;3.90;;;;;;;17.84;82.25;100847.87;108934;1253;68860;-81
2023/09/09 02:02:55;;;;;;;7.10;4.20;;;;;;;17.95;82.06;100850.00;108856;1253;71161;-81
2023/09/09 02:05:23;;;;;;;6.30;3.30;;;;;;;17.80;83.08;100846.73;109028;1253;58948;-81
2023/09/09 02:07:51;;;;;;;7.20;4.00;;;;;;;17.80;83.47;100844.77;109094;1254;60040;-81
2023/09/09 02:10:21;;;;;;;8.30;4.40;;;;;;;17.87;83.57;100846.12;109126;1253;74789;-81
2023/09/09 02:12:51;;;;;;;8.90;3.60;;;;;;;18.04;82.98;100845.27;109007;1254;67155;-81
2023/09/09 02:15:19;;;;;;;8.60;3.60;;;;;;;18.10;82.88;100849.24;108879;1256;71395;-81
2023/09/09 02:17:47;;;;;;;8.70;4.10;;;;;;;18.08;83.33;100846.81;109075;1254;60060;-81
2023/09/09 02:20:15;;;;;;;10.00;4.00;;;;;;;18.06;83.80;100856.21;109045;1252;58166;-81
2023/09/09 02:22:42;;;;;;;8.00;3.40;;;;;;;18.19;83.05;100852.09;109029;1254;73942;-80
2023/09/09 02:25:10;;;;;;;10.20;4.00;;;;;;;18.18;82.51;100848.23;109154;1253;67860;-80
2023/09/09 02:27:38;;;;;;;7.00;3.70;;;;;;;18.12;82.86;100844.91;109062;1253;72673;-81
2023/09/09 02:30:07;;;;;;;6.30;3.70;;;;;;;18.20;82.36;100845.81;108882;1253;58797;-80
2023/09/09 02:32:34;;;;;;;9.80;4.40;;;;;;;18.21;82.01;100847.60;109139;1253;60076;-81
2023/09/09 02:35:03;;;;;;;6.80;3.30;;;;;;;18.20;82.04;100845.67;109021;1254;73263;-80
2023/09/09 02:37:31;;;;;;;8.10;4.40;;;;;;;18.23;81.91;100845.56;109079;1254;68541;-81
2023/09/09 02:39:58;;;;;;;7.60;4.20;;;;;;;18.26;81.72;100846.12;108959;1254;72724;-81
2023/09/09 02:42:27;;;;;;;7.80;3.90;;;;;;;18.26;81.74;100844.53;109010;1254;61702;-81
2023/09/09 02:44:54;;;;;;;7.40;3.60;;;;;;;18.29;81.78;100846.33;108966;1254;58780;-81
2023/09/09 02:47:22;;;;;;;14.30;4.30;;;;;;;18.30;81.66;100843.02;108926;1254;72688;-81
2023/09/09 02:49:51;;;;;;;10.10;4.10;;;;;;;18.34;81.72;100846.02;108902;1254;67126;-81
2023/09/09 02:52:21;;;;;;;11.40;4.20;;;;;;;18.30;81.97;100851.37;109047;1254;73133;-81
2023/09/09 02:54:50;;;;;;;10.50;4.20;;;;;;;18.44;81.14;100859.80;108920;1253;61604;-81
2023/09/09 02:57:18;;;;;;;7.60;4.00;;;;;;;18.48;80.02;100860.78;108984;1253;60046;-81
2023/09/09 02:59:46;;;;;;;7.10;4.10;;;;;;;18.43;79.32;100860.34;108944;1254;72566;-81
2023/09/09 03:02:14;;;;;;;8.10;4.00;;;;;;;18.47;78.65;100857.56;108877;1253;69012;-81
2023/09/09 03:04:42;;;;;;;8.70;3.80;;;;;;;18.35;79.49;100849.46;108975;1253;72664;-82
2023/09/09 03:07:10;;;;;;;7.20;4.20;;;;;;;18.38;79.42;100851.42;109070;1253;61849;-81
2023/09/09 03:09:37;;;;;;;9.10;4.30;;;;;;;18.45;78.77;100852.88;108964;1254;59378;-81
2023/09/09 03:12:06;;;;;;;8.30;4.00;;;;;;;18.40;79.12;100860.39;109006;1253;72623;-81
2023/09/09 03:14:34;;;;;;;13.80;4.30;;;;;;;18.16;81.18;100858.47;109050;1253;67319;-81
2023/09/09 03:17:02;;;;;;;10.50;4.20;;;;;;;18.29;81.55;100858.34;109032;1254;72676;-81
2023/09/09 03:19:31;;;;;;;11.70;3.90;;;;;;;18.61;80.24;100860.67;109072;1254;61719;-81
2023/09/09 03:21:59;;;;;;;9.20;4.10;;;;;;;18.71;80.35;100865.80;109001;1253;58754;-81
2023/09/09 03:24:27;;;;;;;8.80;4.40;;;;;;;18.64;81.26;100873.16;109042;1253;74360;-81
2023/09/09 03:26:54;;;;;;;8.70;4.00;;;;;;;18.58;81.95;100877.73;109043;1254;68516;-81
2023/09/09 03:29:22;;;;;;;6.90;3.70;;;;;;;18.46;82.75;100882.98;108992;1253;72700;-81
2023/09/09 03:31:50;;;;;;;12.90;3.80;;;;;;;18.51;82.94;100884.80;109030;1254;60030;-81
2023/09/09 03:34:18;;;;;;;9.70;4.10;;;;;;;18.43;83.77;100886.95;109027;1253;60012;-81
2023/09/09 03:36:47;;;;;;;10.40;4.20;;;;;;;18.40;84.73;100880.18;109048;1254;73832;-81
2023/09/09 03:39:15;;;;;;;8.20;3.70;;;;;;;18.62;84.32;100886.82;109070;1254;68381;-81
2023/09/09 03:41:43;;;;;;;10.00;4.20;;;;;;;18.70;84.10;100900.55;108920;1254;71697;-81
2023/09/09 03:44:10;;;;;;;6.70;3.60;;;;;;;18.68;84.52;100896.96;108985;1251;60031;-81
2023/09/09 03:46:38;;;;;;;9.30;4.40;;;;;;;18.73;84.66;100883.36;108985;1253;58822;-81
2023/09/09 03:49:06;;;;;;;8.30;4.00;;;;;;;18.92;83.50;100896.30;109036;1253;74057;-81
2023/09/09 03:51:34;;;;;;;8.20;4.20;;;;;;;18.94;83.97;100892.42;109058;1253;69037;-81
2023/09/09 03:54:02;;;;;;;8.60;3.90;;;;;;;19.00;84.37;100892.06;109023;1254;72645;-81
2023/09/09 03:56:31;;;;;;;11.90;4.00;;;;;;;19.08;84.01;100894.19;108931;1255;60060;-81
2023/09/09 03:58:59;;;;;;;7.50;3.90;;;;;;;19.16;83.66;100893.54;109014;1254;58842;-81
2023/09/09 04:01:28;;;;;;;7.70;3.70;;;;;;;19.17;84.19;100899.52;109015;1253;73895;-81
2023/09/09 04:03:57;;;;;;;8.50;3.70;;;;;;;19.12;84.74;100897.52;108976;1253;67690;-81
2023/09/09 04:06:26;;;;;;;8.40;3.80;;;;;;;19.32;83.95;100898.52;109028;1253;72733;-82
2023/09/09 04:08:58;;;;;;;8.90;3.20;;;;;;;19.41;83.70;100899.31;109067;1253;60168;-82
2023/09/09 04:11:26;;;;;;;7.70;4.00;;;;;;;19.46;84.24;100900.64;109031;1253;60036;-81
2023/09/09 04:13:54;;;;;;;8.40;3.40;;;;;;;19.54;84.14;100899.06;109080;1253;74331;-82
2023/09/09 04:16:21;;;;;;;9.00;3.60;;;;;;;19.65;83.98;100903.13;109043;1256;68338;-81
2023/09/09 04:18:50;;;;;;;6.30;3.20;;;;;;;19.69;84.01;100905.09;109042;1253;72811;-81
2023/09/09 04:21:19;;;;;;;6.90;3.00;;;;;;;19.70;84.43;100912.55;109020;1253;61641;-82
2023/09/09 04:23:47;;;;;;;6.70;3.40;;;;;;;19.81;84.36;100921.34;109052;1253;59059;-81
2023/09/09 04:26:15;;;;;;;7.50;2.80;;;;;;;19.97;84.31;100922.73;108951;1253;73771;-82
2023/09/09 04:28:43;;;;;;;8.30;2.70;;;;;;;20.33;82.79;100923.79;109029;1253;67219;-82
2023/09/09 04:31:11;;;;;;;4.50;2.70;;;;;;;20.61;81.20;100920.85;109124;1254;73131;-83
2023/09/09 04:34:24;;;;;;;5.30;2.90;;;;;;;20.67;80.96;100921.96;109018;1254;61862;-81
2023/09/09 04:37:30;;;;;;;9.40;2.70;;;;;;;20.83;79.69;100920.36;109039;1253;58561;-82
2023/09/09 07:20:51;;;;;;;4.50;1.50;;;;;;;27.56;39.40;101037.80;109048;1253;58682;-82
2023/09/09 07:23:18;;;;;;;7.80;1.60;;;;;;;27.77;38.56;101039.17;109010;1253;62517;-83
2023/09/09 07:25:49;;;;;;;3.30;1.20;;;;;;;27.91;37.92;101043.69;108984;1254;58311;-83
2023/09/09 07:28:17;;;;;;;3.20;1.40;;;;;;;28.01;37.67;101045.81;109093;1252;58349;-84
2023/09/09 07:30:45;;;;;;;2.70;1.40;;;;;;;28.10;37.56;101039.80;109112;1253;63688;-83
2023/09/09 07:33:13;;;;;;;5.90;1.60;;;;;;;28.21;36.85;101047.47;109047;1254;58669;-85
2023/09/09 07:35:41;;;;;;;6.90;1.60;;;;;;;28.24;36.16;101045.58;109052;1256;63771;-86
2023/09/09 07:38:09;;;;;;;4.20;1.30;;;;;;;28.22;35.98;101045.95;109100;1253;58993;-87
2023/09/09 07:40:37;;;;;;;3.60;1.40;;;;;;;28.30;35.61;101047.48;109016;1253;58168;-85
2023/09/09 07:43:05;;;;;;;5.10;1.20;;;;;;;28.38;35.67;101042.56;108997;1253;64935;-85
2023/09/09 07:45:33;;;;;;;5.10;1.50;;;;;;;28.38;35.64;101037.42;109034;1253;59822;-85
2023/09/09 07:48:00;;;;;;;3.80;1.50;;;;;;;28.46;35.46;101046.77;109029;1253;63755;-85
2023/09/09 07:50:28;;;;;;;3.10;1.30;;;;;;;28.54;35.07;101044.42;109095;1254;58826;-83
2023/09/09 07:53:02;;;;;;;4.70;1.30;;;;;;;28.65;34.86;101045.98;108848;1253;58558;-84
2023/09/09 07:55:30;;;;;;;4.80;1.10;;;;;;;28.76;33.97;101048.46;109066;1254;64940;-84
2023/09/09 07:57:59;;;;;;;4.40;1.20;;;;;;;28.74;33.41;101047.33;109140;1254;58822;-86
2023/09/09 08:00:26;;;;;;;1.80;1.10;;;;;;;28.74;33.63;101049.98;109121;1255;62600;-83
2023/09/09 08:02:54;;;;;;;1.70;0.90;;;;;;;28.75;33.12;101053.61;109051;1254;58974;-83
2023/09/09 08:05:22;;;;;;;4.30;1.10;;;;;;;28.77;33.26;101060.30;109044;1253;58503;-83
2023/09/09 08:07:50;;;;;;;6.90;1.70;;;;;;;28.74;33.24;101061.31;109100;1253;75474;-83
2023/09/09 08:10:18;;;;;;;2.00;1.10;;;;;;;28.84;32.87;101069.27;109129;1252;59805;-85
2023/09/09 08:12:45;;;;;;;3.40;1.10;;;;;;;28.78;32.44;101068.25;109036;1253;63816;-83
2023/09/09 08:15:13;;;;;;;3.30;1.20;;;;;;;28.73;32.65;101077.13;108926;1253;58693;-83
2023/09/09 08:17:50;;;;;;;3.70;1.20;;;;;;;28.94;32.74;101070.23;109055;1253;58991;-83
2023/09/09 08:20:17;;;;;;;2.50;1.20;;;;;;;29.02;32.26;101075.59;109021;1253;63639;-83
2023/09/09 08:22:45;;;;;;;4.90;1.00;;;;;;;29.03;31.74;101081.95;109013;1253;58657;-83
2023/09/09 08:25:13;;;;;;;3.20;0.90;;;;;;;29.06;32.26;101081.10;109033;1253;72985;-85
2023/09/09 08:27:41;;;;;;;4.70;1.40;;;;;;;29.26;31.70;101082.55;109091;1255;58490;-83
2023/09/09 08:30:09;;;;;;;3.90;1.10;;;;;;;29.37;31.41;101080.43;109054;1254;58981;-84
2023/09/09 08:32:37;;;;;;;3.90;0.70;;;;;;;29.50;30.85;101081.14;109178;1253;64940;-84
2023/09/09 08:35:05;;;;;;;1.30;1.00;;;;;;;29.48;30.74;101085.08;108999;1254;59784;-84
2023/09/09 08:37:33;;;;;;;1.50;0.80;;;;;;;29.47;30.95;101092.88;108959;1253;62565;-84
2023/09/09 08:40:01;;;;;;;6.30;1.10;;;;;;;29.66;30.70;101091.78;109148;1253;60701;-83
2023/09/09 08:42:47;;;;;;;2.20;0.80;;;;;;;29.78;30.00;101094.59;109066;1253;58459;-83
2023/09/09 08:45:21;;;;;;;3.90;0.90;;;;;;;29.89;29.43;101096.01;108975;1253;63734;-85
2023/09/09 08:47:49;;;;;;;3.50;0.90;;;;;;;29.82;29.05;101104.90;109043;1253;59997;-86
2023/09/09 08:50:17;;;;;;;5.20;1.00;;;;;;;29.66;28.95;101104.01;108984;1254;62444;-84
2023/09/09 08:52:44;;;;;;;4.10;1.10;;;;;;;29.83;29.31;101103.29;108959;1253;60014;-84
2023/09/09 08:55:12;;;;;;;1.70;0.80;;;;;;;30.15;28.71;101097.85;108886;1253;58264;-83
2023/09/09 08:57:40;;;;;;;11.20;1.20;;;;;;;30.22;28.05;101097.49;109160;1253;64973;-83
2023/09/09 09:00:08;;;;;;;2.50;1.00;;;;;;;30.37;28.34;101095.05;108856;1253;59743;-84
2023/09/09 09:02:36;;;;;;;1.30;0.90;;;;;;;30.44;28.31;101095.45;109005;1253;63911;-83
2023/09/09 09:05:05;;;;;;;2.30;1.00;;;;;;;30.53;28.15;101094.66;109096;1254;58230;-83
2023/09/09 09:07:33;;;;;;;3.50;1.10;;;;;;;30.59;28.75;101093.70;109004;1253;58231;-83
2023/09/09 09:10:01;;;;;;;1.90;1.00;;;;;;;30.84;28.73;101095.98;109215;1253;63786;-83
2023/09/09 09:12:29;;;;;;;2.20;0.90;;;;;;;30.93;27.94;101105.82;108993;1258;58625;-83
2023/09/09 09:14:56;;;;;;;1.60;0.90;;;;;;;30.56;28.07;101106.42;108963;1253;64227;-83
2023/09/09 09:17:24;;;;;;;2.00;0.90;;;;;;;30.07;28.53;101111.03;108975;1254;58450;-83
2023/09/09 09:19:53;;;;;;;1.20;0.80;;;;;;;29.76;29.05;101107.28;109091;1253;58512;-83
2023/09/09 09:22:21;;;;;;;2.40;1.10;;;;;;;29.44;29.45;101109.18;109033;1253;64957;-82
2023/09/09 09:24:48;;;;;;;3.20;1.00;;;;;;;29.06;29.62;101106.51;109017;1254;60060;-83
2023/09/09 09:27:16;;;;;;;14.70;6.90;;;;;;;28.89;30.10;101105.63;109025;1253;63753;-83
2023/09/09 09:29:45;;;;;;;3.80;1.30;;;;;;;29.00;29.98;101107.09;109087;1253;58395;-83
2023/09/09 09:32:14;;;;;;;2.80;1.10;;;;;;;29.22;30.30;101103.27;109030;1253;58158;-83
2023/09/09 09:34:42;;;;;;;2.40;0.90;;;;;;;29.47;29.73;101104.86;109217;1254;64963;-83
2023/09/09 09:37:11;;;;;;;6.70;1.00;;;;;;;29.64;29.31;101108.90;109063;1253;67099;-83
2023/09/09 09:39:39;;;;;;;2.90;1.00;;;;;;;29.66;29.96;101108.98;109160;1253;72663;-83
2023/09/09 09:42:06;;;;;;;1.80;0.70;;;;;;;29.63;29.39;101119.11;109100;1254;58842;-83
2023/09/09 09:44:34;;;;;;;6.50;1.60;;;;;;;29.67;28.90;101126.45;109003;1253;58828;-83
2023/09/09 09:47:02;;;;;;;2.00;0.80;;;;;;;29.74;28.20;101125.55;109055;1258;64915;-84
2023/09/09 09:49:38;;;;;;;2.50;1.10;;;;;;;29.82;28.16;101128.25;109217;1253;59776;-84
2023/09/09 09:52:06;;;;;;;2.00;1.00;;;;;;;29.90;28.47;101129.33;109089;1254;63733;-83
2023/09/09 09:54:35;;;;;;;1.30;1.00;;;;;;;29.99;28.52;101129.61;109096;1254;59183;-84
2023/09/09 09:57:04;;;;;;;5.00;1.00;;;;;;;29.96;28.82;101133.69;109129;1253;58728;-83
2023/09/09 09:59:36;;;;;;;6.70;0.90;;;;;;;30.06;29.04;101131.08;109088;1254;63655;-83
2023/09/09 10:02:04;;;;;;;2.30;0.90;;;;;;;30.33;28.85;101127.95;109092;1253;59774;-83
2023/09/09 10:04:41;;;;;;;1.90;0.90;;;;;;;30.30;27.46;101138.18;109069;1254;65562;-84
2023/09/09 10:07:11;;;;;;;2.60;0.70;;;;;;;30.15;26.86;101135.23;109120;1254;58667;-85
2023/09/09 10:09:47;;;;;;;4.50;1.20;;;;;;;29.97;26.67;101140.30;108950;1254;58540;-85
2023/09/09 10:12:19;;;;;;;1.50;0.70;;;;;;;29.96;27.13;101134.59;109026;1253;64955;-85
2023/09/09 10:15:04;;;;;;;1.50;0.90;;;;;;;30.10;28.00;101135.29;109004;1253;59711;-85
2023/09/09 10:17:32;;;;;;;3.00;1.70;;;;;;;30.00;28.55;101133.95;109206;1257;63774;-85
2023/09/09 10:20:00;;;;;;;1.00;0.70;;;;;;;30.11;29.13;101138.27;109032;1254;58769;-84
2023/09/09 10:22:28;;;;;;;3.10;0.80;;;;;;;30.28;27.95;101146.56;108965;1254;58966;-84
2023/09/09 10:24:56;;;;;;;3.40;0.80;;;;;;;30.18;27.41;101146.52;109055;1254;63704;-84
2023/09/09 10:27:24;;;;;;;2.30;0.80;;;;;;;30.23;27.21;101149.52;109069;1254;58829;-85
2023/09/09 10:29:52;;;;;;;2.90;0.90;;;;;;;30.19;27.10;101148.20;108978;1254;63731;-86
2023/09/09 10:32:19;;;;;;;2.50;0.70;;;;;;;30.17;27.24;101151.88;108816;1254;58480;-85
2023/09/09 10:34:47;;;;;;;8.00;2.00;;;;;;;30.24;27.42;101149.67;109018;1253;58318;-85
2023/09/09 10:37:16;;;;;;;3.20;1.00;;;;;;;30.33;27.73;101150.44;108962;1255;64485;-85
2023/09/09 10:39:46;;;;;;;4.70;1.00;;;;;;;30.33;27.61;101151.09;109108;1253;60409;-84
2023/09/09 10:42:15;;;;;;;1.70;0.90;;;;;;;30.48;27.66;101158.53;108998;1254;62419;-84
2023/09/09 10:44:48;;;;;;;1.30;0.70;;;;;;;30.57;27.36;101161.05;109160;1253;58254;-86
2023/09/09 10:47:16;;;;;;;3.90;0.90;;;;;;;30.61;26.40;101159.29;109089;1254;58339;-84
2023/09/09 10:49:44;;;;;;;4.10;1.30;;;;;;;30.51;26.67;101155.89;108998;1254;64904;-83
2023/09/09 10:52:33;;;;;;;3.90;0.80;;;;;;;30.34;25.59;101162.52;109034;1254;58490;-84
2023/09/09 10:55:13;;;;;;;5.00;1.10;;;;;;;30.39;25.30;101162.54;108891;1254;63709;-86
2023/09/09 10:57:41;;;;;;;4.30;1.00;;;;;;;30.47;25.65;101162.56;108991;1254;58360;-83
2023/09/09 11:00:10;;;;;;;2.80;0.80;;;;;;;30.46;25.66;101165.86;109035;1253;58566;-83
2023/09/09 11:02:45;;;;;;;2.00;0.90;;;;;;;30.44;25.24;101166.98;109172;1255;64940;-82
2023/09/09 11:05:15;;;;;;;2.10;1.00;;;;;;;30.35;25.49;101164.45;109036;1254;58628;-84
2023/09/09 11:07:43;;;;;;;3.50;0.80;;;;;;;30.41;25.53;101164.16;109065;1253;62429;-82
2023/09/09 11:10:15;;;;;;;2.30;1.00;;;;;;;30.40;25.05;101164.47;109020;1254;58412;-84
2023/09/09 11:12:50;;;;;;;7.80;3.30;;;;;;;30.29;25.94;101158.81;109064;1254;58343;-83
2023/09/09 11:15:18;;;;;;;2.00;0.90;;;;;;;30.39;25.94;101158.67;109015;1254;64943;-84
2023/09/09 11:17:45;;;;;;;2.10;0.70;;;;;;;30.44;25.10;101162.40;109013;1253;58559;-83
2023/09/09 11:20:13;;;;;;;2.30;0.70;;;;;;;30.38;25.34;101161.09;109025;1254;63683;-84
2023/09/09 11:22:41;;;;;;;3.90;2.20;;;;;;;30.49;25.61;101157.25;109158;1254;58925;-84
2023/09/09 11:25:09;;;;;;;4.00;1.80;;;;;;;30.53;25.18;101154.20;109144;1253;58224;-82
2023/09/09 11:27:37;;;;;;;3.80;1.00;;;;;;;30.37;24.92;101158.98;109124;1253;64963;-84
2023/09/09 11:30:06;;;;;;;4.00;1.20;;;;;;;30.29;25.20;101159.85;109043;1255;58751;-83
2023/09/09 11:32:33;;;;;;;5.20;1.40;;;;;;;30.46;25.29;101159.50;109016;1254;63916;-82
2023/09/09 11:35:04;;;;;;;4.30;1.10;;;;;;;30.56;25.17;101153.80;108990;1253;58291;-83
2023/09/09 11:37:32;;;;;;;4.90;1.20;;;;;;;30.80;25.03;101156.84;109024;1254;58388;-84
2023/09/09 11:39:59;;;;;;;3.00;0.70;;;;;;;30.94;25.30;101153.64;109055;1253;63727;-84
2023/09/09 11:42:27;;;;;;;2.10;0.60;;;;;;;31.03;25.02;101153.80;108943;1254;59896;-83
2023/09/09 11:44:55;;;;;;;3.20;0.50;;;;;;;30.90;24.71;101161.11;109008;1254;63796;-84
2023/09/09 11:47:24;;;;;;;2.90;0.90;;;;;;;30.66;24.98;101157.29;108965;1253;58874;-84
2023/09/09 11:49:58;;;;;;;2.20;0.60;;;;;;;30.70;24.95;101159.07;109054;1254;58953;-84
2023/09/09 11:52:28;;;;;;;0.80;0.60;;;;;;;30.78;24.35;101161.41;108988;1254;63756;-84
2023/09/09 11:54:56;;;;;;;1.00;0.60;;;;;;;30.77;24.33;101158.67;108963;1253;61561;-84
2023/09/09 11:57:24;;;;;;;2.60;0.60;;;;;;;30.94;24.10;101159.58;108951;1254;64553;-84
2023/09/09 11:59:54;;;;;;;4.00;1.20;;;;;;;31.17;24.57;101162.73;109012;1253;58409;-83
2023/09/09 12:02:25;;;;;;;3.30;0.90;;;;;;;31.24;24.20;101165.07;109093;1254;58691;-84
2023/09/09 12:04:58;;;;;;;3.00;0.90;;;;;;;31.03;23.98;101164.77;109003;1254;65412;-84
2023/09/09 12:07:30;;;;;;;1.70;0.60;;;;;;;30.74;24.18;101167.14;109109;1254;58645;-84
2023/09/09 12:09:58;;;;;;;0.80;0.70;;;;;;;30.64;24.38;101167.91;108961;1254;63775;-83
2023/09/09 12:12:26;;;;;;;1.40;0.70;;;;;;;30.60;24.96;101164.45;109060;1254;58281;-84
2023/09/09 12:14:54;;;;;;;2.60;0.90;;;;;;;30.71;25.34;101164.55;109159;1253;59058;-84
2023/09/09 12:17:22;;;;;;;2.70;0.80;;;;;;;30.83;24.57;101170.48;109088;1253;64991;-82
2023/09/09 12:20:08;;;;;;;1.00;0.60;;;;;;;30.91;23.94;101167.75;108994;1254;70782;-86
2023/09/09 12:22:46;;;;;;;3.30;0.90;;;;;;;31.20;23.32;101167.58;109135;1254;63768;-83
2023/09/09 12:25:31;;;;;;;2.10;0.60;;;;;;;31.38;22.66;101168.39;108973;1253;58570;-83
2023/09/09 12:27:59;;;;;;;0.70;0.40;;;;;;;31.54;23.01;101170.48;108922;1254;58597;-82
2023/09/09 12:30:34;;;;;;;5.30;0.90;;;;;;;31.64;23.03;101173.03;109055;1253;63776;-84
2023/09/09 12:33:07;;;;;;;1.40;0.60;;;;;;;31.72;22.21;101173.81;109048;1253;59729;-84
2023/09/09 12:35:45;;;;;;;3.50;0.90;;;;;;;31.61;22.04;101175.63;109082;1253;64283;-82
2023/09/09 12:38:14;;;;;;;2.70;0.70;;;;;;;31.48;22.01;101177.43;109005;1254;58410;-82
2023/09/09 12:40:48;;;;;;;1.40;0.90;;;;;;;31.52;22.15;101175.33;109135;1253;58509;-83
2023/09/09 12:43:20;;;;;;;1.00;0.60;;;;;;;31.48;22.68;101176.54;109087;1254;65035;-83
2023/09/09 12:45:52;;;;;;;2.40;1.60;;;;;;;31.35;23.08;101182.17;109156;1253;59757;-83
2023/09/09 12:48:20;;;;;;;7.60;0.90;;;;;;;31.23;23.28;101180.73;109076;1254;62423;-83
2023/09/09 12:50:48;;;;;;;1.90;0.80;;;;;;;31.10;24.11;101178.87;108904;1257;58988;-82
2023/09/09 12:53:17;;;;;;;4.70;0.90;;;;;;;31.03;24.10;101175.08;108817;1253;292320;-83
2023/09/09 12:55:45;;;;;;;3.20;0.70;;;;;;;31.01;24.04;101182.66;109073;1253;64953;-82
2023/09/09 12:58:16;;;;;;;2.00;0.70;;;;;;;31.10;23.77;101184.11;109007;1254;60406;-83
2023/09/09 13:00:44;;;;;;;1.80;0.80;;;;;;;31.02;23.39;101185.23;109043;1253;63878;-83
2023/09/09 13:03:13;;;;;;;2.40;0.90;;;;;;;31.00;23.78;101185.80;109007;1254;58809;-83
2023/09/09 13:05:41;;;;;;;4.40;1.30;;;;;;;31.00;23.39;101184.67;109037;1254;58351;-83
2023/09/09 13:08:09;;;;;;;2.10;0.70;;;;;;;30.92;23.17;101186.28;109051;1254;64998;-82
2023/09/09 13:10:37;;;;;;;3.00;0.80;;;;;;;30.93;22.96;101188.78;109106;1254;59759;-82
2023/09/09 13:13:05;;;;;;;3.10;0.70;;;;;;;30.98;23.21;101189.75;109030;1253;64066;-82
2023/09/09 13:15:33;;;;;;;1.60;0.70;;;;;;;31.01;23.07;101191.05;109054;1253;58343;-83
2023/09/09 13:18:01;;;;;;;1.00;0.60;;;;;;;30.90;23.00;101189.73;109109;1253;58247;-83
2023/09/09 13:20:30;;;;;;;1.30;0.50;;;;;;;30.88;23.59;101189.98;108947;1253;63709;-83
2023/09/09 13:22:58;;;;;;;1.70;0.70;;;;;;;30.79;23.31;101188.74;109016;1254;59971;-82
2023/09/09 13:25:26;;;;;;;1.90;0.90;;;;;;;30.88;22.97;101186.84;108994;1253;63878;-84
2023/09/09 13:27:54;;;;;;;3.60;0.90;;;;;;;30.80;23.37;101188.02;109025;1254;58446;-83
2023/09/09 13:30:21;;;;;;;2.70;0.90;;;;;;;30.71;23.66;101194.52;109046;1253;58392;-83
2023/09/09 13:32:49;;;;;;;3.80;0.70;;;;;;;30.69;23.47;101197.33;108950;1254;63748;-83
2023/09/09 13:35:18;;;;;;;3.50;0.70;;;;;;;30.70;22.94;101196.61;109053;1254;60049;-82
2023/09/09 13:37:45;;;;;;;1.60;0.70;;;;;;;30.68;23.01;101196.13;108930;1254;63689;-83
2023/09/09 13:40:14;;;;;;;3.00;0.70;;;;;;;30.80;22.92;101202.30;109024;1257;58774;-83
2023/09/09 13:42:42;;;;;;;3.90;0.70;;;;;;;30.91;23.04;101203.30;108996;1254;58768;-83
2023/09/09 13:45:11;;;;;;;5.30;0.80;;;;;;;30.78;22.74;101203.41;109007;1253;64921;-82
2023/09/09 13:47:39;;;;;;;1.10;0.60;;;;;;;30.57;22.97;101203.92;108987;1253;59751;-83
2023/09/09 13:50:07;;;;;;;1.70;0.50;;;;;;;30.45;22.96;101206.30;108751;1254;64651;-83
2023/09/09 13:52:35;;;;;;;1.20;0.40;;;;;;;30.35;23.15;101206.67;109038;1254;58740;-82
2023/09/09 13:55:03;;;;;;;1.90;0.70;;;;;;;30.23;23.44;101207.34;108856;1254;58470;-83
2023/09/09 13:57:32;;;;;;;2.10;0.60;;;;;;;30.11;23.78;101207.35;109002;1254;65451;-83
2023/09/09 14:00:03;;;;;;;5.20;1.50;;;;;;;30.01;23.94;101211.09;108985;1253;59791;-83
2023/09/09 14:02:34;;;;;;;2.10;1.40;;;;;;;29.93;23.57;101212.01;108949;1254;64253;-83
2023/09/09 14:05:02;;;;;;;5.20;0.70;;;;;;;29.87;23.66;101214.06;108960;1254;58349;-83
2023/09/09 14:07:30;;;;;;;2.30;0.70;;;;;;;29.78;23.39;101217.55;108934;1253;58835;-83